sensor_id;sensor_type;location;lat;lon;timestamp;P1;durP1;ratioP1;P2;durP2;ratioP2
30533;SDS011;17318;52.390;9.754;2023-05-02T00:00:10;4.13;;;2.03;;
30533;SDS011;17318;52.390;9.754;2023-05-02T00:02:37;3.05;;;1.20;;
30533;SDS011;17318;52.390;9.754;2023-05-02T00:05:03;5.00;;;1.60;;
30533;SDS011;17318;52.390;9.754;2023-05-02T00:07:29;6.10;;;2.00;;
30533;SDS011;17318;52.390;9.754;2023-05-02T00:09:55;4.05;;;1.75;;
30533;SDS011;17318;52.390;9.754;2023-05-02T00:12:20;3.38;;;1.42;;
30533;SDS011;17318;52.390;9.754;2023-05-02T00:14:47;11.15;;;1.70;;
30533;SDS011;17318;52.390;9.754;2023-05-02T00:17:16;4.68;;;1.77;;
30533;SDS011;17318;52.390;9.754;2023-05-02T00:19:42;3.22;;;1.55;;
30533;SDS011;17318;52.390;9.754;2023-05-02T00:22:08;2.53;;;1.20;;
30533;SDS011;17318;52.390;9.754;2023-05-02T00:24:33;4.53;;;2.03;;
30533;SDS011;17318;52.390;9.754;2023-05-02T00:26:59;3.03;;;1.48;;
30533;SDS011;17318;52.390;9.754;2023-05-02T00:29:25;5.43;;;1.67;;
30533;SDS011;17318;52.390;9.754;2023-05-02T00:31:50;3.20;;;1.75;;
30533;SDS011;17318;52.390;9.754;2023-05-02T00:34:16;3.25;;;1.33;;
30533;SDS011;17318;52.390;9.754;2023-05-02T00:36:42;3.35;;;1.40;;
30533;SDS011;17318;52.390;9.754;2023-05-02T00:39:07;7.22;;;2.42;;
30533;SDS011;17318;52.390;9.754;2023-05-02T00:41:33;3.38;;;1.35;;
30533;SDS011;17318;52.390;9.754;2023-05-02T00:43:59;5.32;;;2.05;;
30533;SDS011;17318;52.390;9.754;2023-05-02T00:46:25;4.22;;;1.80;;
30533;SDS011;17318;52.390;9.754;2023-05-02T00:48:51;4.93;;;1.80;;
30533;SDS011;17318;52.390;9.754;2023-05-02T00:51:17;3.63;;;1.40;;
30533;SDS011;17318;52.390;9.754;2023-05-02T00:53:43;5.78;;;1.50;;
30533;SDS011;17318;52.390;9.754;2023-05-02T00:56:09;5.35;;;1.73;;
30533;SDS011;17318;52.390;9.754;2023-05-02T00:58:35;2.38;;;1.70;;
30533;SDS011;17318;52.390;9.754;2023-05-02T01:12:24;4.88;;;2.38;;
30533;SDS011;17318;52.390;9.754;2023-05-02T01:14:57;9.45;;;3.10;;
30533;SDS011;17318;52.390;9.754;2023-05-02T01:17:26;7.75;;;2.75;;
30533;SDS011;17318;52.390;9.754;2023-05-02T01:19:57;6.15;;;3.58;;
30533;SDS011;17318;52.390;9.754;2023-05-02T01:22:27;6.65;;;3.10;;
30533;SDS011;17318;52.390;9.754;2023-05-02T01:30:37;10.55;;;3.58;;
30533;SDS011;17318;52.390;9.754;2023-05-02T01:33:07;7.05;;;4.55;;
30533;SDS011;17318;52.390;9.754;2023-05-02T01:35:35;8.52;;;4.72;;
30533;SDS011;17318;52.390;9.754;2023-05-02T01:38:01;9.00;;;5.18;;
30533;SDS011;17318;52.390;9.754;2023-05-02T01:40:30;12.60;;;6.60;;
30533;SDS011;17318;52.390;9.754;2023-05-02T01:42:57;14.35;;;5.85;;
30533;SDS011;17318;52.390;9.754;2023-05-02T01:45:25;12.65;;;5.55;;
30533;SDS011;17318;52.390;9.754;2023-05-02T01:47:52;13.65;;;7.13;;
30533;SDS011;17318;52.390;9.754;2023-05-02T01:50:20;11.93;;;6.85;;
30533;SDS011;17318;52.390;9.754;2023-05-02T01:52:49;12.25;;;6.35;;
30533;SDS011;17318;52.390;9.754;2023-05-02T01:55:18;13.00;;;6.88;;
30533;SDS011;17318;52.390;9.754;2023-05-02T01:57:45;16.60;;;8.50;;
30533;SDS011;17318;52.390;9.754;2023-05-02T02:00:12;15.07;;;8.07;;
30533;SDS011;17318;52.390;9.754;2023-05-02T02:02:41;20.90;;;9.82;;
30533;SDS011;17318;52.390;9.754;2023-05-02T02:05:09;19.73;;;9.40;;
30533;SDS011;17318;52.390;9.754;2023-05-02T02:07:36;17.88;;;10.02;;
30533;SDS011;17318;52.390;9.754;2023-05-02T02:10:03;18.10;;;10.60;;
30533;SDS011;17318;52.390;9.754;2023-05-02T02:13:12;21.80;;;10.98;;
30533;SDS011;17318;52.390;9.754;2023-05-02T02:15:24;16.90;;;9.25;;
30533;SDS011;17318;52.390;9.754;2023-05-02T02:18:04;18.35;;;10.07;;
30533;SDS011;17318;52.390;9.754;2023-05-02T02:20:34;16.60;;;9.23;;
30533;SDS011;17318;52.390;9.754;2023-05-02T02:23:02;19.35;;;10.82;;
30533;SDS011;17318;52.390;9.754;2023-05-02T02:25:30;20.42;;;10.20;;
30533;SDS011;17318;52.390;9.754;2023-05-02T02:27:57;18.30;;;10.10;;
30533;SDS011;17318;52.390;9.754;2023-05-02T02:30:24;20.50;;;9.43;;
30533;SDS011;17318;52.390;9.754;2023-05-02T02:32:50;19.83;;;10.70;;
30533;SDS011;17318;52.390;9.754;2023-05-02T02:35:16;21.80;;;11.27;;
30533;SDS011;17318;52.390;9.754;2023-05-02T02:37:57;22.13;;;11.50;;
30533;SDS011;17318;52.390;9.754;2023-05-02T02:40:30;23.75;;;11.70;;
30533;SDS011;17318;52.390;9.754;2023-05-02T02:43:11;23.63;;;12.43;;
30533;SDS011;17318;52.390;9.754;2023-05-02T02:48:33;24.83;;;12.82;;
30533;SDS011;17318;52.390;9.754;2023-05-02T02:51:12;21.55;;;12.40;;
30533;SDS011;17318;52.390;9.754;2023-05-02T02:56:26;24.50;;;13.15;;
30533;SDS011;17318;52.390;9.754;2023-05-02T02:59:03;22.45;;;14.10;;
30533;SDS011;17318;52.390;9.754;2023-05-02T03:01:33;24.95;;;14.82;;
30533;SDS011;17318;52.390;9.754;2023-05-02T03:04:04;26.73;;;13.98;;
30533;SDS011;17318;52.390;9.754;2023-05-02T03:06:31;28.42;;;15.45;;
30533;SDS011;17318;52.390;9.754;2023-05-02T03:08:57;25.77;;;14.30;;
30533;SDS011;17318;52.390;9.754;2023-05-02T03:11:23;25.92;;;14.70;;
30533;SDS011;17318;52.390;9.754;2023-05-02T03:13:48;25.15;;;13.40;;
30533;SDS011;17318;52.390;9.754;2023-05-02T03:18:57;24.27;;;12.68;;
30533;SDS011;17318;52.390;9.754;2023-05-02T03:21:23;24.30;;;12.77;;
30533;SDS011;17318;52.390;9.754;2023-05-02T03:23:49;24.92;;;12.32;;
30533;SDS011;17318;52.390;9.754;2023-05-02T03:26:15;20.33;;;12.05;;
30533;SDS011;17318;52.390;9.754;2023-05-02T03:28:41;24.30;;;12.30;;
30533;SDS011;17318;52.390;9.754;2023-05-02T03:31:10;22.42;;;12.02;;
30533;SDS011;17318;52.390;9.754;2023-05-02T03:33:37;27.00;;;13.07;;
30533;SDS011;17318;52.390;9.754;2023-05-02T03:36:03;21.15;;;12.23;;
30533;SDS011;17318;52.390;9.754;2023-05-02T03:38:29;23.45;;;12.40;;
30533;SDS011;17318;52.390;9.754;2023-05-02T03:40:57;22.08;;;12.05;;
30533;SDS011;17318;52.390;9.754;2023-05-02T03:43:23;22.55;;;12.50;;
30533;SDS011;17318;52.390;9.754;2023-05-02T03:45:49;23.73;;;12.07;;
30533;SDS011;17318;52.390;9.754;2023-05-02T03:48:15;24.42;;;12.73;;
30533;SDS011;17318;52.390;9.754;2023-05-02T03:50:40;23.17;;;11.60;;
30533;SDS011;17318;52.390;9.754;2023-05-02T03:53:07;25.80;;;11.75;;
30533;SDS011;17318;52.390;9.754;2023-05-02T03:55:43;19.40;;;11.10;;
30533;SDS011;17318;52.390;9.754;2023-05-02T03:58:10;22.40;;;12.10;;
30533;SDS011;17318;52.390;9.754;2023-05-02T04:00:36;26.08;;;11.98;;
30533;SDS011;17318;52.390;9.754;2023-05-02T04:03:04;22.90;;;11.18;;
30533;SDS011;17318;52.390;9.754;2023-05-02T04:05:31;21.92;;;11.88;;
30533;SDS011;17318;52.390;9.754;2023-05-02T04:07:56;25.42;;;12.85;;
30533;SDS011;17318;52.390;9.754;2023-05-02T04:10:22;27.90;;;12.55;;
30533;SDS011;17318;52.390;9.754;2023-05-02T04:12:48;25.65;;;13.20;;
30533;SDS011;17318;52.390;9.754;2023-05-02T04:15:14;31.02;;;14.70;;
30533;SDS011;17318;52.390;9.754;2023-05-02T04:17:39;25.30;;;13.93;;
30533;SDS011;17318;52.390;9.754;2023-05-02T04:20:05;24.55;;;14.60;;
30533;SDS011;17318;52.390;9.754;2023-05-02T04:22:31;25.33;;;14.35;;
30533;SDS011;17318;52.390;9.754;2023-05-02T04:24:58;26.92;;;14.52;;
30533;SDS011;17318;52.390;9.754;2023-05-02T04:27:24;28.95;;;14.63;;
30533;SDS011;17318;52.390;9.754;2023-05-02T04:29:50;27.30;;;15.07;;
30533;SDS011;17318;52.390;9.754;2023-05-02T04:32:16;30.25;;;14.77;;
30533;SDS011;17318;52.390;9.754;2023-05-02T04:34:42;29.08;;;14.73;;
30533;SDS011;17318;52.390;9.754;2023-05-02T04:37:07;30.02;;;14.57;;
30533;SDS011;17318;52.390;9.754;2023-05-02T04:39:33;31.05;;;14.77;;
30533;SDS011;17318;52.390;9.754;2023-05-02T04:41:59;25.63;;;13.57;;
30533;SDS011;17318;52.390;9.754;2023-05-02T04:44:25;27.17;;;15.00;;
30533;SDS011;17318;52.390;9.754;2023-05-02T04:46:51;28.25;;;15.02;;
30533;SDS011;17318;52.390;9.754;2023-05-02T04:49:17;29.88;;;14.73;;
30533;SDS011;17318;52.390;9.754;2023-05-02T04:51:43;22.38;;;12.95;;
30533;SDS011;17318;52.390;9.754;2023-05-02T04:54:13;24.17;;;11.57;;
30533;SDS011;17318;52.390;9.754;2023-05-02T04:56:39;23.70;;;13.02;;
30533;SDS011;17318;52.390;9.754;2023-05-02T04:59:05;26.55;;;12.70;;
30533;SDS011;17318;52.390;9.754;2023-05-02T05:01:30;23.17;;;11.73;;
30533;SDS011;17318;52.390;9.754;2023-05-02T05:03:56;20.10;;;10.50;;
30533;SDS011;17318;52.390;9.754;2023-05-02T05:06:22;23.05;;;12.05;;
30533;SDS011;17318;52.390;9.754;2023-05-02T05:08:48;21.00;;;10.95;;
30533;SDS011;17318;52.390;9.754;2023-05-02T05:11:13;15.45;;;9.25;;
30533;SDS011;17318;52.390;9.754;2023-05-02T05:13:42;13.93;;;7.65;;
30533;SDS011;17318;52.390;9.754;2023-05-02T05:16:08;11.10;;;5.60;;
30533;SDS011;17318;52.390;9.754;2023-05-02T05:18:33;6.78;;;3.45;;
30533;SDS011;17318;52.390;9.754;2023-05-02T05:21:06;4.53;;;2.60;;
30533;SDS011;17318;52.390;9.754;2023-05-02T05:23:33;4.55;;;2.15;;
30533;SDS011;17318;52.390;9.754;2023-05-02T05:26:08;3.80;;;2.38;;
30533;SDS011;17318;52.390;9.754;2023-05-02T05:28:34;4.20;;;2.20;;
30533;SDS011;17318;52.390;9.754;2023-05-02T05:31:04;3.75;;;1.85;;
30533;SDS011;17318;52.390;9.754;2023-05-02T05:33:35;2.67;;;1.83;;
30533;SDS011;17318;52.390;9.754;2023-05-02T05:38:33;3.95;;;1.80;;
30533;SDS011;17318;52.390;9.754;2023-05-02T05:40:59;7.78;;;2.13;;
30533;SDS011;17318;52.390;9.754;2023-05-02T05:43:26;4.43;;;2.05;;
30533;SDS011;17318;52.390;9.754;2023-05-02T05:45:52;8.40;;;1.65;;
30533;SDS011;17318;52.390;9.754;2023-05-02T05:48:18;6.07;;;2.17;;
30533;SDS011;17318;52.390;9.754;2023-05-02T05:50:44;3.90;;;1.75;;
30533;SDS011;17318;52.390;9.754;2023-05-02T05:53:10;5.60;;;1.75;;
30533;SDS011;17318;52.390;9.754;2023-05-02T05:55:36;7.28;;;1.85;;
30533;SDS011;17318;52.390;9.754;2023-05-02T05:58:03;4.97;;;1.70;;
30533;SDS011;17318;52.390;9.754;2023-05-02T06:00:29;6.30;;;1.92;;
30533;SDS011;17318;52.390;9.754;2023-05-02T06:02:55;7.55;;;2.97;;
30533;SDS011;17318;52.390;9.754;2023-05-02T06:05:20;8.43;;;2.67;;
30533;SDS011;17318;52.390;9.754;2023-05-02T06:07:46;10.38;;;2.65;;
30533;SDS011;17318;52.390;9.754;2023-05-02T06:10:12;10.30;;;2.42;;
30533;SDS011;17318;52.390;9.754;2023-05-02T06:12:37;6.68;;;2.25;;
30533;SDS011;17318;52.390;9.754;2023-05-02T06:15:04;9.23;;;2.25;;
30533;SDS011;17318;52.390;9.754;2023-05-02T06:17:30;5.50;;;2.10;;
30533;SDS011;17318;52.390;9.754;2023-05-02T06:19:56;11.43;;;3.25;;
30533;SDS011;17318;52.390;9.754;2023-05-02T06:22:22;11.00;;;2.78;;
30533;SDS011;17318;52.390;9.754;2023-05-02T06:24:47;11.75;;;3.22;;
30533;SDS011;17318;52.390;9.754;2023-05-02T06:27:13;15.85;;;3.65;;
30533;SDS011;17318;52.390;9.754;2023-05-02T06:29:38;12.38;;;2.75;;
30533;SDS011;17318;52.390;9.754;2023-05-02T06:32:04;12.57;;;3.20;;
30533;SDS011;17318;52.390;9.754;2023-05-02T06:34:33;13.52;;;3.33;;
30533;SDS011;17318;52.390;9.754;2023-05-02T06:36:59;14.85;;;2.85;;
30533;SDS011;17318;52.390;9.754;2023-05-02T06:39:25;15.38;;;3.35;;
30533;SDS011;17318;52.390;9.754;2023-05-02T06:41:50;18.67;;;4.35;;
30533;SDS011;17318;52.390;9.754;2023-05-02T06:44:20;19.17;;;4.15;;
30533;SDS011;17318;52.390;9.754;2023-05-02T06:46:45;16.17;;;3.42;;
30533;SDS011;17318;52.390;9.754;2023-05-02T06:49:11;19.23;;;3.67;;
30533;SDS011;17318;52.390;9.754;2023-05-02T06:51:38;16.08;;;3.83;;
30533;SDS011;17318;52.390;9.754;2023-05-02T06:54:04;19.58;;;3.92;;
30533;SDS011;17318;52.390;9.754;2023-05-02T06:56:30;19.02;;;3.20;;
30533;SDS011;17318;52.390;9.754;2023-05-02T06:58:55;17.13;;;4.07;;
30533;SDS011;17318;52.390;9.754;2023-05-02T07:01:21;17.80;;;3.67;;
30533;SDS011;17318;52.390;9.754;2023-05-02T07:03:47;21.30;;;3.47;;
30533;SDS011;17318;52.390;9.754;2023-05-02T07:06:12;15.43;;;4.95;;
30533;SDS011;17318;52.390;9.754;2023-05-02T07:08:38;20.77;;;3.55;;
30533;SDS011;17318;52.390;9.754;2023-05-02T07:11:03;14.63;;;2.88;;
30533;SDS011;17318;52.390;9.754;2023-05-02T07:13:29;17.08;;;3.60;;
30533;SDS011;17318;52.390;9.754;2023-05-02T07:15:55;12.73;;;3.10;;
30533;SDS011;17318;52.390;9.754;2023-05-02T07:18:21;15.43;;;3.33;;
30533;SDS011;17318;52.390;9.754;2023-05-02T07:20:47;21.30;;;3.80;;
30533;SDS011;17318;52.390;9.754;2023-05-02T07:23:12;21.20;;;3.95;;
30533;SDS011;17318;52.390;9.754;2023-05-02T07:25:38;21.10;;;3.40;;
30533;SDS011;17318;52.390;9.754;2023-05-02T07:28:04;22.92;;;3.45;;
30533;SDS011;17318;52.390;9.754;2023-05-02T07:30:30;15.98;;;3.58;;
30533;SDS011;17318;52.390;9.754;2023-05-02T07:32:56;15.32;;;4.97;;
30533;SDS011;17318;52.390;9.754;2023-05-02T07:35:22;18.10;;;3.55;;
30533;SDS011;17318;52.390;9.754;2023-05-02T07:37:47;21.05;;;4.30;;
30533;SDS011;17318;52.390;9.754;2023-05-02T07:40:13;16.35;;;3.22;;
30533;SDS011;17318;52.390;9.754;2023-05-02T07:42:39;19.30;;;3.92;;
30533;SDS011;17318;52.390;9.754;2023-05-02T07:45:06;16.80;;;3.10;;
30533;SDS011;17318;52.390;9.754;2023-05-02T07:47:32;17.23;;;3.75;;
30533;SDS011;17318;52.390;9.754;2023-05-02T07:49:58;24.48;;;4.53;;
30533;SDS011;17318;52.390;9.754;2023-05-02T07:52:23;15.20;;;3.17;;
30533;SDS011;17318;52.390;9.754;2023-05-02T07:54:50;18.10;;;3.75;;
30533;SDS011;17318;52.390;9.754;2023-05-02T07:57:16;17.75;;;3.33;;
30533;SDS011;17318;52.390;9.754;2023-05-02T07:59:42;20.80;;;3.97;;
30533;SDS011;17318;52.390;9.754;2023-05-02T08:02:09;18.38;;;3.20;;
30533;SDS011;17318;52.390;9.754;2023-05-02T08:04:37;16.63;;;3.15;;
30533;SDS011;17318;52.390;9.754;2023-05-02T08:07:02;13.20;;;2.72;;
30533;SDS011;17318;52.390;9.754;2023-05-02T08:09:28;12.05;;;2.85;;
30533;SDS011;17318;52.390;9.754;2023-05-02T08:11:54;11.60;;;2.88;;
30533;SDS011;17318;52.390;9.754;2023-05-02T08:14:19;14.73;;;2.97;;
30533;SDS011;17318;52.390;9.754;2023-05-02T08:16:45;16.38;;;2.85;;
30533;SDS011;17318;52.390;9.754;2023-05-02T08:19:11;15.20;;;3.38;;
30533;SDS011;17318;52.390;9.754;2023-05-02T08:21:36;12.00;;;2.97;;
30533;SDS011;17318;52.390;9.754;2023-05-02T08:24:02;12.85;;;2.88;;
30533;SDS011;17318;52.390;9.754;2023-05-02T08:26:28;18.40;;;3.33;;
30533;SDS011;17318;52.390;9.754;2023-05-02T08:28:53;13.00;;;2.40;;
30533;SDS011;17318;52.390;9.754;2023-05-02T08:31:19;12.65;;;2.20;;
30533;SDS011;17318;52.390;9.754;2023-05-02T08:33:45;12.90;;;2.58;;
30533;SDS011;17318;52.390;9.754;2023-05-02T08:36:15;10.85;;;2.95;;
30533;SDS011;17318;52.390;9.754;2023-05-02T08:38:43;16.70;;;2.60;;
30533;SDS011;17318;52.390;9.754;2023-05-02T08:41:10;7.80;;;2.22;;
30533;SDS011;17318;52.390;9.754;2023-05-02T08:43:42;10.57;;;2.15;;
30533;SDS011;17318;52.390;9.754;2023-05-02T08:46:11;14.75;;;2.38;;
30533;SDS011;17318;52.390;9.754;2023-05-02T08:48:39;7.07;;;2.03;;
30533;SDS011;17318;52.390;9.754;2023-05-02T08:51:10;13.80;;;3.03;;
30533;SDS011;17318;52.390;9.754;2023-05-02T08:53:37;14.32;;;2.42;;
30533;SDS011;17318;52.390;9.754;2023-05-02T08:56:05;12.70;;;2.20;;
30533;SDS011;17318;52.390;9.754;2023-05-02T08:58:31;11.55;;;2.55;;
30533;SDS011;17318;52.390;9.754;2023-05-02T09:01:00;11.15;;;2.25;;
30533;SDS011;17318;52.390;9.754;2023-05-02T09:03:32;16.70;;;2.67;;
30533;SDS011;17318;52.390;9.754;2023-05-02T09:08:33;10.05;;;2.72;;
30533;SDS011;17318;52.390;9.754;2023-05-02T09:11:00;8.32;;;2.53;;
30533;SDS011;17318;52.390;9.754;2023-05-02T09:13:31;17.73;;;3.42;;
30533;SDS011;17318;52.390;9.754;2023-05-02T09:16:05;8.18;;;2.42;;
30533;SDS011;17318;52.390;9.754;2023-05-02T09:18:47;33.60;;;5.53;;
30533;SDS011;17318;52.390;9.754;2023-05-02T09:21:22;22.88;;;3.47;;
30533;SDS011;17318;52.390;9.754;2023-05-02T09:23:58;17.95;;;3.58;;
30533;SDS011;17318;52.390;9.754;2023-05-02T09:26:25;9.25;;;1.90;;
30533;SDS011;17318;52.390;9.754;2023-05-02T09:28:56;7.85;;;2.40;;
30533;SDS011;17318;52.390;9.754;2023-05-02T09:31:33;12.30;;;2.35;;
30533;SDS011;17318;52.390;9.754;2023-05-02T09:34:13;8.25;;;2.58;;
30533;SDS011;17318;52.390;9.754;2023-05-02T09:36:42;13.73;;;2.47;;
30533;SDS011;17318;52.390;9.754;2023-05-02T09:39:12;16.35;;;2.60;;
30533;SDS011;17318;52.390;9.754;2023-05-02T09:41:42;11.15;;;2.50;;
30533;SDS011;17318;52.390;9.754;2023-05-02T09:44:10;22.48;;;5.65;;
30533;SDS011;17318;52.390;9.754;2023-05-02T09:46:41;7.28;;;2.00;;
30533;SDS011;17318;52.390;9.754;2023-05-02T09:49:08;12.82;;;3.33;;
30533;SDS011;17318;52.390;9.754;2023-05-02T09:51:34;15.48;;;2.97;;
30533;SDS011;17318;52.390;9.754;2023-05-02T09:54:00;15.88;;;2.65;;
30533;SDS011;17318;52.390;9.754;2023-05-02T09:56:25;10.82;;;2.13;;
30533;SDS011;17318;52.390;9.754;2023-05-02T09:58:51;11.30;;;2.47;;
30533;SDS011;17318;52.390;9.754;2023-05-02T10:01:37;14.32;;;2.30;;
30533;SDS011;17318;52.390;9.754;2023-05-02T10:04:04;10.90;;;1.93;;
30533;SDS011;17318;52.390;9.754;2023-05-02T10:06:31;14.35;;;2.78;;
30533;SDS011;17318;52.390;9.754;2023-05-02T10:08:57;10.43;;;1.90;;
30533;SDS011;17318;52.390;9.754;2023-05-02T10:11:23;9.05;;;2.38;;
30533;SDS011;17318;52.390;9.754;2023-05-02T10:13:49;10.45;;;1.90;;
30533;SDS011;17318;52.390;9.754;2023-05-02T10:16:18;9.27;;;1.90;;
30533;SDS011;17318;52.390;9.754;2023-05-02T10:21:31;9.85;;;2.50;;
30533;SDS011;17318;52.390;9.754;2023-05-02T10:23:59;14.18;;;2.30;;
30533;SDS011;17318;52.390;9.754;2023-05-02T10:26:27;13.18;;;2.70;;
30533;SDS011;17318;52.390;9.754;2023-05-02T10:28:53;12.25;;;2.88;;
30533;SDS011;17318;52.390;9.754;2023-05-02T10:31:20;14.38;;;3.85;;
30533;SDS011;17318;52.390;9.754;2023-05-02T10:33:49;13.93;;;3.72;;
30533;SDS011;17318;52.390;9.754;2023-05-02T10:36:19;20.35;;;2.70;;
30533;SDS011;17318;52.390;9.754;2023-05-02T10:38:46;10.90;;;2.53;;
30533;SDS011;17318;52.390;9.754;2023-05-02T10:41:14;11.30;;;2.07;;
30533;SDS011;17318;52.390;9.754;2023-05-02T10:43:46;19.17;;;4.15;;
30533;SDS011;17318;52.390;9.754;2023-05-02T10:49:10;15.95;;;2.92;;
30533;SDS011;17318;52.390;9.754;2023-05-02T10:51:38;16.95;;;3.60;;
30533;SDS011;17318;52.390;9.754;2023-05-02T10:57:08;13.73;;;3.50;;
30533;SDS011;17318;52.390;9.754;2023-05-02T10:59:35;18.80;;;3.28;;
30533;SDS011;17318;52.390;9.754;2023-05-02T11:05:07;7.20;;;2.40;;
30533;SDS011;17318;52.390;9.754;2023-05-02T11:07:33;10.73;;;3.03;;
30533;SDS011;17318;52.390;9.754;2023-05-02T11:10:33;25.77;;;3.85;;
30533;SDS011;17318;52.390;9.754;2023-05-02T11:12:53;7.85;;;2.83;;
30533;SDS011;17318;52.390;9.754;2023-05-02T11:20:26;12.32;;;2.83;;
30533;SDS011;17318;52.390;9.754;2023-05-02T11:22:53;11.73;;;3.53;;
30533;SDS011;17318;52.390;9.754;2023-05-02T11:25:30;11.75;;;3.30;;
30533;SDS011;17318;52.390;9.754;2023-05-02T11:27:57;16.25;;;2.95;;
30533;SDS011;17318;52.390;9.754;2023-05-02T11:30:36;8.60;;;3.22;;
30533;SDS011;17318;52.390;9.754;2023-05-02T11:35:29;12.00;;;3.78;;
30533;SDS011;17318;52.390;9.754;2023-05-02T11:38:02;11.18;;;3.35;;
30533;SDS011;17318;52.390;9.754;2023-05-02T11:40:35;7.78;;;2.63;;
30533;SDS011;17318;52.390;9.754;2023-05-02T11:43:10;11.18;;;2.58;;
30533;SDS011;17318;52.390;9.754;2023-05-02T11:45:41;11.13;;;3.90;;
30533;SDS011;17318;52.390;9.754;2023-05-02T11:48:07;8.63;;;3.00;;
30533;SDS011;17318;52.390;9.754;2023-05-02T11:50:40;13.43;;;3.43;;
30533;SDS011;17318;52.390;9.754;2023-05-02T11:53:09;13.50;;;3.97;;
30533;SDS011;17318;52.390;9.754;2023-05-02T11:55:36;11.55;;;2.90;;
30533;SDS011;17318;52.390;9.754;2023-05-02T11:58:02;10.27;;;3.30;;
30533;SDS011;17318;52.390;9.754;2023-05-02T12:00:28;17.08;;;3.28;;
30533;SDS011;17318;52.390;9.754;2023-05-02T12:02:53;9.45;;;2.65;;
30533;SDS011;17318;52.390;9.754;2023-05-02T12:05:26;7.82;;;2.70;;
30533;SDS011;17318;52.390;9.754;2023-05-02T12:07:55;8.68;;;3.10;;
30533;SDS011;17318;52.390;9.754;2023-05-02T12:10:21;8.45;;;3.13;;
30533;SDS011;17318;52.390;9.754;2023-05-02T12:12:47;9.60;;;3.38;;
30533;SDS011;17318;52.390;9.754;2023-05-02T12:15:13;14.43;;;3.95;;
30533;SDS011;17318;52.390;9.754;2023-05-02T12:17:40;17.05;;;3.70;;
30533;SDS011;17318;52.390;9.754;2023-05-02T12:20:17;7.32;;;3.15;;
30533;SDS011;17318;52.390;9.754;2023-05-02T12:22:42;9.93;;;2.85;;
30533;SDS011;17318;52.390;9.754;2023-05-02T12:25:08;8.23;;;3.22;;
30533;SDS011;17318;52.390;9.754;2023-05-02T12:27:34;12.82;;;3.30;;
30533;SDS011;17318;52.390;9.754;2023-05-02T12:30:01;10.15;;;3.03;;
30533;SDS011;17318;52.390;9.754;2023-05-02T12:32:28;9.48;;;3.17;;
30533;SDS011;17318;52.390;9.754;2023-05-02T12:34:58;16.75;;;2.92;;
30533;SDS011;17318;52.390;9.754;2023-05-02T12:37:26;13.10;;;3.90;;
30533;SDS011;17318;52.390;9.754;2023-05-02T12:39:52;13.73;;;3.00;;
30533;SDS011;17318;52.390;9.754;2023-05-02T12:42:20;8.57;;;2.92;;
30533;SDS011;17318;52.390;9.754;2023-05-02T12:44:47;8.25;;;2.28;;
30533;SDS011;17318;52.390;9.754;2023-05-02T12:47:18;4.65;;;2.40;;
30533;SDS011;17318;52.390;9.754;2023-05-02T12:52:18;8.38;;;2.97;;
30533;SDS011;17318;52.390;9.754;2023-05-02T12:54:45;14.80;;;3.10;;
30533;SDS011;17318;52.390;9.754;2023-05-02T12:57:23;7.75;;;2.72;;
30533;SDS011;17318;52.390;9.754;2023-05-02T12:59:53;8.20;;;2.50;;
30533;SDS011;17318;52.390;9.754;2023-05-02T13:02:19;10.73;;;2.90;;
30533;SDS011;17318;52.390;9.754;2023-05-02T13:04:46;8.93;;;2.30;;
30533;SDS011;17318;52.390;9.754;2023-05-02T13:07:12;7.82;;;2.40;;
30533;SDS011;17318;52.390;9.754;2023-05-02T13:09:38;11.57;;;2.80;;
30533;SDS011;17318;52.390;9.754;2023-05-02T13:12:03;4.65;;;2.55;;
30533;SDS011;17318;52.390;9.754;2023-05-02T13:14:30;8.77;;;2.15;;
30533;SDS011;17318;52.390;9.754;2023-05-02T13:16:55;4.13;;;1.95;;
30533;SDS011;17318;52.390;9.754;2023-05-02T13:19:21;5.82;;;2.05;;
30533;SDS011;17318;52.390;9.754;2023-05-02T13:21:47;7.55;;;2.28;;
30533;SDS011;17318;52.390;9.754;2023-05-02T13:24:13;8.80;;;2.10;;
30533;SDS011;17318;52.390;9.754;2023-05-02T13:29:06;7.13;;;2.38;;
30533;SDS011;17318;52.390;9.754;2023-05-02T13:31:35;6.50;;;2.20;;
30533;SDS011;17318;52.390;9.754;2023-05-02T13:34:02;5.07;;;1.63;;
30533;SDS011;17318;52.390;9.754;2023-05-02T13:36:28;4.70;;;1.60;;
30533;SDS011;17318;52.390;9.754;2023-05-02T13:38:54;6.78;;;1.67;;
30533;SDS011;17318;52.390;9.754;2023-05-02T13:41:20;6.60;;;1.58;;
30533;SDS011;17318;52.390;9.754;2023-05-02T13:43:48;9.48;;;2.45;;
30533;SDS011;17318;52.390;9.754;2023-05-02T13:46:14;7.15;;;1.70;;
30533;SDS011;17318;52.390;9.754;2023-05-02T13:48:40;5.53;;;1.83;;
30533;SDS011;17318;52.390;9.754;2023-05-02T13:51:05;8.95;;;1.83;;
30533;SDS011;17318;52.390;9.754;2023-05-02T13:53:31;6.60;;;1.85;;
30533;SDS011;17318;52.390;9.754;2023-05-02T13:55:57;13.05;;;2.00;;
30533;SDS011;17318;52.390;9.754;2023-05-02T13:58:23;4.18;;;1.60;;
30533;SDS011;17318;52.390;9.754;2023-05-02T14:00:48;4.63;;;1.73;;
30533;SDS011;17318;52.390;9.754;2023-05-02T14:03:16;4.20;;;1.52;;
30533;SDS011;17318;52.390;9.754;2023-05-02T14:05:42;24.23;;;8.52;;
30533;SDS011;17318;52.390;9.754;2023-05-02T14:08:10;28.70;;;13.23;;
30533;SDS011;17318;52.390;9.754;2023-05-02T14:10:42;5.90;;;2.00;;
30533;SDS011;17318;52.390;9.754;2023-05-02T14:13:08;4.68;;;1.77;;
30533;SDS011;17318;52.390;9.754;2023-05-02T14:15:34;4.72;;;1.63;;
30533;SDS011;17318;52.390;9.754;2023-05-02T14:18:01;7.57;;;1.50;;
30533;SDS011;17318;52.390;9.754;2023-05-02T14:20:27;4.85;;;1.52;;
30533;SDS011;17318;52.390;9.754;2023-05-02T14:22:52;4.70;;;1.70;;
30533;SDS011;17318;52.390;9.754;2023-05-02T14:25:18;4.07;;;1.73;;
30533;SDS011;17318;52.390;9.754;2023-05-02T14:27:45;4.00;;;2.03;;
30533;SDS011;17318;52.390;9.754;2023-05-02T14:30:11;5.00;;;1.60;;
30533;SDS011;17318;52.390;9.754;2023-05-02T14:32:36;3.13;;;1.42;;
30533;SDS011;17318;52.390;9.754;2023-05-02T14:35:02;4.30;;;1.70;;
30533;SDS011;17318;52.390;9.754;2023-05-02T14:37:28;3.08;;;1.85;;
30533;SDS011;17318;52.390;9.754;2023-05-02T14:39:54;5.80;;;1.45;;
30533;SDS011;17318;52.390;9.754;2023-05-02T14:42:23;12.10;;;2.00;;
30533;SDS011;17318;52.390;9.754;2023-05-02T14:44:49;9.43;;;1.88;;
30533;SDS011;17318;52.390;9.754;2023-05-02T14:47:15;4.93;;;1.48;;
30533;SDS011;17318;52.390;9.754;2023-05-02T14:49:41;4.35;;;1.50;;
30533;SDS011;17318;52.390;9.754;2023-05-02T14:52:07;6.78;;;1.42;;
30533;SDS011;17318;52.390;9.754;2023-05-02T14:54:33;5.93;;;1.88;;
30533;SDS011;17318;52.390;9.754;2023-05-02T14:56:59;8.30;;;1.55;;
30533;SDS011;17318;52.390;9.754;2023-05-02T14:59:27;5.03;;;1.50;;
30533;SDS011;17318;52.390;9.754;2023-05-02T15:01:54;3.90;;;1.30;;
30533;SDS011;17318;52.390;9.754;2023-05-02T15:04:20;8.02;;;2.13;;
30533;SDS011;17318;52.390;9.754;2023-05-02T15:06:46;10.25;;;2.20;;
30533;SDS011;17318;52.390;9.754;2023-05-02T15:09:12;5.47;;;1.80;;
30533;SDS011;17318;52.390;9.754;2023-05-02T15:11:38;8.05;;;1.92;;
30533;SDS011;17318;52.390;9.754;2023-05-02T15:14:04;7.53;;;1.88;;
30533;SDS011;17318;52.390;9.754;2023-05-02T15:18:58;6.40;;;2.22;;
30533;SDS011;17318;52.390;9.754;2023-05-02T15:21:24;8.20;;;1.83;;
30533;SDS011;17318;52.390;9.754;2023-05-02T15:23:49;5.70;;;2.50;;
30533;SDS011;17318;52.390;9.754;2023-05-02T15:26:15;7.00;;;2.40;;
30533;SDS011;17318;52.390;9.754;2023-05-02T15:28:41;5.57;;;2.15;;
30533;SDS011;17318;52.390;9.754;2023-05-02T15:31:07;7.93;;;2.40;;
30533;SDS011;17318;52.390;9.754;2023-05-02T15:33:33;7.78;;;2.65;;
30533;SDS011;17318;52.390;9.754;2023-05-02T15:35:58;5.18;;;2.72;;